logo
Rechercher aéroport 
image banner adimage banner adimage banner ad
image banner ad

SNJC - Cialne Umirim

Situé à Umirim, Brazil

ICAO - SNJC, IATA -

Données fournies par Airmate  

Information générale

Coordonnées: S3°41'41" W39°24'31"
Élévation : 285 feet MSL.
Variation magnétique : -20.837457115° East
Voir autres Aéroports à Ceará

Données opérationnelles

Special qualification required
Heure actuelle UTC:
Heure actuelle locale:
Météo à : - ( 0 km )
METAR: PALG 251816Z AUTO VRB03KT 10SM FEW008 08/06 A2972 RMK AO2 PNO $
Voir NOTAMs / SUP AIP / TFR affectant cet aéroport [VIEW]
Fréquences de communication: [VIEW]

Pistes:

Identifiant RWYQFULongueur (ft)Largeur (ft)SurfaceLDA (ft)
09229766OTHER
27229766OTHER

Coordonnées de l'aéroport

Adresse: Umirim Brazil

Vue satellite de SNJC